sensor_id;sensor_type;location;lat;lon;timestamp;pressure;altitude;pressure_sealevel;temperature;humidity
15444;BME280;7822;48.146;11.576;2022-09-02T00:02:03;95550.69;;;17.29;60.50
15444;BME280;7822;48.146;11.576;2022-09-02T00:04:33;95546.31;;;17.38;60.37
15444;BME280;7822;48.146;11.576;2022-09-02T00:07:00;95547.09;;;17.38;60.37
15444;BME280;7822;48.146;11.576;2022-09-02T00:09:29;95538.56;;;17.36;60.42
15444;BME280;7822;48.146;11.576;2022-09-02T00:11:57;95536.41;;;17.32;60.53
15444;BME280;7822;48.146;11.576;2022-09-02T00:14:28;95533.78;;;17.32;60.46
15444;BME280;7822;48.146;11.576;2022-09-02T00:16:56;95533.75;;;17.24;60.95
15444;BME280;7822;48.146;11.576;2022-09-02T00:19:27;95535.22;;;17.18;61.22
15444;BME280;7822;48.146;11.576;2022-09-02T00:21:57;95541.13;;;17.20;61.07
15444;BME280;7822;48.146;11.576;2022-09-02T00:24:25;95537.22;;;17.24;60.80
15444;BME280;7822;48.146;11.576;2022-09-02T00:26:54;95532.94;;;17.23;61.08
15444;BME280;7822;48.146;11.576;2022-09-02T00:29:22;95532.13;;;17.23;60.81
15444;BME280;7822;48.146;11.576;2022-09-02T00:31:50;95527.84;;;17.22;61.00
15444;BME280;7822;48.146;11.576;2022-09-02T00:34:18;95533.09;;;17.22;61.11
15444;BME280;7822;48.146;11.576;2022-09-02T00:36:46;95528.50;;;17.16;61.23
15444;BME280;7822;48.146;11.576;2022-09-02T00:39:14;95525.34;;;17.12;61.42
15444;BME280;7822;48.146;11.576;2022-09-02T00:41:43;95521.56;;;17.07;61.32
15444;BME280;7822;48.146;11.576;2022-09-02T00:44:15;95512.09;;;17.14;61.01
15444;BME280;7822;48.146;11.576;2022-09-02T00:46:43;95521.56;;;17.07;61.63
15444;BME280;7822;48.146;11.576;2022-09-02T00:49:15;95517.06;;;16.99;62.04
15444;BME280;7822;48.146;11.576;2022-09-02T00:51:48;95510.28;;;16.88;62.19
15444;BME280;7822;48.146;11.576;2022-09-02T00:54:19;95521.22;;;16.84;61.99
15444;BME280;7822;48.146;11.576;2022-09-02T00:56:49;95518.91;;;16.81;62.46
15444;BME280;7822;48.146;11.576;2022-09-02T00:59:25;95513.66;;;16.81;62.36
15444;BME280;7822;48.146;11.576;2022-09-02T01:01:54;95512.88;;;16.80;62.20
15444;BME280;7822;48.146;11.576;2022-09-02T01:04:23;95517.72;;;16.75;62.45
15444;BME280;7822;48.146;11.576;2022-09-02T01:06:51;95507.72;;;16.71;62.65
15444;BME280;7822;48.146;11.576;2022-09-02T01:09:20;95509.66;;;16.69;62.64
15444;BME280;7822;48.146;11.576;2022-09-02T01:11:49;95517.53;;;16.69;62.91
15444;BME280;7822;48.146;11.576;2022-09-02T01:14:22;95515.72;;;16.69;62.54
15444;BME280;7822;48.146;11.576;2022-09-02T01:16:57;95512.91;;;16.63;62.91
15444;BME280;7822;48.146;11.576;2022-09-02T01:19:29;95514.19;;;16.59;63.12
15444;BME280;7822;48.146;11.576;2022-09-02T01:22:00;95512.53;;;16.58;63.19
15444;BME280;7822;48.146;11.576;2022-09-02T01:24:30;95510.06;;;16.56;63.18
15444;BME280;7822;48.146;11.576;2022-09-02T01:27:00;95514.09;;;16.51;63.69
15444;BME280;7822;48.146;11.576;2022-09-02T01:29:28;95508.56;;;16.54;63.41
15444;BME280;7822;48.146;11.576;2022-09-02T01:31:55;95513.16;;;16.52;63.41
15444;BME280;7822;48.146;11.576;2022-09-02T01:34:24;95516.31;;;16.46;63.51
15444;BME280;7822;48.146;11.576;2022-09-02T01:36:51;95497.44;;;16.52;63.30
15444;BME280;7822;48.146;11.576;2022-09-02T01:39:20;95502.50;;;16.53;63.23
15444;BME280;7822;48.146;11.576;2022-09-02T01:41:48;95497.44;;;16.52;63.55
15444;BME280;7822;48.146;11.576;2022-09-02T01:44:16;95497.44;;;16.52;63.45
15444;BME280;7822;48.146;11.576;2022-09-02T01:46:44;95497.28;;;16.53;63.31
15444;BME280;7822;48.146;11.576;2022-09-02T01:49:12;95496.72;;;16.50;63.41
15444;BME280;7822;48.146;11.576;2022-09-02T01:51:40;95492.44;;;16.66;62.61
15444;BME280;7822;48.146;11.576;2022-09-02T01:54:08;95496.53;;;16.61;62.77
15444;BME280;7822;48.146;11.576;2022-09-02T01:56:37;95495.84;;;16.59;62.76
15444;BME280;7822;48.146;11.576;2022-09-02T01:59:05;95484.47;;;16.50;63.23
15444;BME280;7822;48.146;11.576;2022-09-02T02:01:34;95482.81;;;16.49;63.35
15444;BME280;7822;48.146;11.576;2022-09-02T02:04:02;95489.78;;;16.58;63.16
15444;BME280;7822;48.146;11.576;2022-09-02T02:06:30;95485.44;;;16.49;63.18
15444;BME280;7822;48.146;11.576;2022-09-02T02:08:58;95482.13;;;16.47;63.32
15444;BME280;7822;48.146;11.576;2022-09-02T02:11:25;95485.88;;;16.45;63.76
15444;BME280;7822;48.146;11.576;2022-09-02T02:13:55;95478.47;;;16.40;63.65
15444;BME280;7822;48.146;11.576;2022-09-02T02:16:22;95482.84;;;16.31;64.18
15444;BME280;7822;48.146;11.576;2022-09-02T02:18:50;95485.28;;;16.33;64.03
15444;BME280;7822;48.146;11.576;2022-09-02T02:21:18;95476.09;;;16.29;64.05
15444;BME280;7822;48.146;11.576;2022-09-02T02:23:46;95488.97;;;16.22;64.58
15444;BME280;7822;48.146;11.576;2022-09-02T02:26:14;95479.16;;;16.24;64.33
15444;BME280;7822;48.146;11.576;2022-09-02T02:28:43;95473.25;;;16.22;64.52
15444;BME280;7822;48.146;11.576;2022-09-02T02:31:12;95486.06;;;16.25;63.81
15444;BME280;7822;48.146;11.576;2022-09-02T02:33:40;95475.44;;;16.27;64.49
15444;BME280;7822;48.146;11.576;2022-09-02T02:36:08;95480.50;;;16.28;64.39
15444;BME280;7822;48.146;11.576;2022-09-02T02:38:37;95482.63;;;16.25;64.42
15444;BME280;7822;48.146;11.576;2022-09-02T02:41:06;95479.16;;;16.24;64.35
15444;BME280;7822;48.146;11.576;2022-09-02T02:43:37;95477.22;;;16.26;64.10
15444;BME280;7822;48.146;11.576;2022-09-02T02:46:06;95468.09;;;16.30;64.11
15444;BME280;7822;48.146;11.576;2022-09-02T02:48:36;95478.50;;;16.22;64.57
15444;BME280;7822;48.146;11.576;2022-09-02T02:51:05;95472.88;;;16.17;64.62
15444;BME280;7822;48.146;11.576;2022-09-02T02:53:33;95478.66;;;16.21;64.25
15444;BME280;7822;48.146;11.576;2022-09-02T02:56:05;95478.28;;;16.16;64.57
15444;BME280;7822;48.146;11.576;2022-09-02T02:58:33;95471.72;;;16.12;64.70
15444;BME280;7822;48.146;11.576;2022-09-02T03:01:01;95472.16;;;16.07;64.86
15444;BME280;7822;48.146;11.576;2022-09-02T03:03:29;95471.47;;;16.05;65.17
15444;BME280;7822;48.146;11.576;2022-09-02T03:05:59;95472.38;;;15.96;65.43
15444;BME280;7822;48.146;11.576;2022-09-02T03:08:26;95466.91;;;15.90;65.73
15444;BME280;7822;48.146;11.576;2022-09-02T03:10:55;95468.25;;;15.94;65.46
15444;BME280;7822;48.146;11.576;2022-09-02T03:13:24;95463.03;;;15.94;65.32
15444;BME280;7822;48.146;11.576;2022-09-02T03:15:52;95460.13;;;15.97;64.97
15444;BME280;7822;48.146;11.576;2022-09-02T03:18:21;95451.16;;;15.99;65.21
15444;BME280;7822;48.146;11.576;2022-09-02T03:20:49;95457.19;;;16.00;65.12
15444;BME280;7822;48.146;11.576;2022-09-02T03:23:18;95446.81;;;15.90;65.53
15444;BME280;7822;48.146;11.576;2022-09-02T03:25:46;95452.19;;;15.89;65.42
15444;BME280;7822;48.146;11.576;2022-09-02T03:28:13;95454.66;;;15.90;65.66
15444;BME280;7822;48.146;11.576;2022-09-02T03:30:41;95458.25;;;15.89;65.67
15444;BME280;7822;48.146;11.576;2022-09-02T03:33:09;95457.06;;;15.84;65.63
15444;BME280;7822;48.146;11.576;2022-09-02T03:35:39;95451.44;;;15.79;65.91
15444;BME280;7822;48.146;11.576;2022-09-02T03:38:07;95454.56;;;15.82;65.74
15444;BME280;7822;48.146;11.576;2022-09-02T03:40:37;95454.66;;;15.73;66.28
15444;BME280;7822;48.146;11.576;2022-09-02T03:43:05;95456.59;;;15.71;66.01
15444;BME280;7822;48.146;11.576;2022-09-02T03:45:33;95450.81;;;15.67;66.22
15444;BME280;7822;48.146;11.576;2022-09-02T03:48:01;95445.97;;;15.72;66.03
15444;BME280;7822;48.146;11.576;2022-09-02T03:50:32;95440.59;;;15.74;65.96
15444;BME280;7822;48.146;11.576;2022-09-02T03:53:00;95443.97;;;15.84;65.87
15444;BME280;7822;48.146;11.576;2022-09-02T03:55:28;95446.38;;;15.77;65.98
15444;BME280;7822;48.146;11.576;2022-09-02T03:57:58;95438.53;;;15.77;65.59
15444;BME280;7822;48.146;11.576;2022-09-02T04:00:28;95436.63;;;15.70;65.94
15444;BME280;7822;48.146;11.576;2022-09-02T04:02:57;95437.47;;;15.70;65.83
15444;BME280;7822;48.146;11.576;2022-09-02T04:05:27;95445.09;;;15.64;66.17
15444;BME280;7822;48.146;11.576;2022-09-02T04:07:55;95436.78;;;15.68;66.12
15444;BME280;7822;48.146;11.576;2022-09-02T04:10:22;95442.97;;;15.67;66.25
15444;BME280;7822;48.146;11.576;2022-09-02T04:12:51;95441.03;;;15.69;65.71
15444;BME280;7822;48.146;11.576;2022-09-02T04:15:21;95435.81;;;15.69;66.20
15444;BME280;7822;48.146;11.576;2022-09-02T04:17:50;95438.56;;;15.68;66.32
15444;BME280;7822;48.146;11.576;2022-09-02T04:20:18;95437.75;;;15.67;66.13
15444;BME280;7822;48.146;11.576;2022-09-02T04:22:46;95444.25;;;15.63;65.91
15444;BME280;7822;48.146;11.576;2022-09-02T04:25:13;95439.84;;;15.64;66.22
15444;BME280;7822;48.146;11.576;2022-09-02T04:27:41;95439.03;;;15.63;66.04
15444;BME280;7822;48.146;11.576;2022-09-02T04:30:10;95446.19;;;15.61;66.11
15444;BME280;7822;48.146;11.576;2022-09-02T04:32:43;95440.13;;;15.61;66.08
15444;BME280;7822;48.146;11.576;2022-09-02T04:35:11;95443.75;;;15.60;66.49
15444;BME280;7822;48.146;11.576;2022-09-02T04:37:39;95435.44;;;15.64;66.25
15444;BME280;7822;48.146;11.576;2022-09-02T04:40:07;95442.59;;;15.62;66.41
15444;BME280;7822;48.146;11.576;2022-09-02T04:42:35;95443.59;;;15.61;66.32
15444;BME280;7822;48.146;11.576;2022-09-02T04:45:04;95450.97;;;15.66;65.97
15444;BME280;7822;48.146;11.576;2022-09-02T04:47:32;95443.75;;;15.60;66.15
15444;BME280;7822;48.146;11.576;2022-09-02T04:50:02;95439.31;;;15.60;65.90
15444;BME280;7822;48.146;11.576;2022-09-02T04:52:30;95441.41;;;15.56;66.38
15444;BME280;7822;48.146;11.576;2022-09-02T04:54:58;95438.13;;;15.54;66.78
15444;BME280;7822;48.146;11.576;2022-09-02T04:57:26;95435.28;;;15.48;66.83
15444;BME280;7822;48.146;11.576;2022-09-02T04:59:53;95445.88;;;15.46;67.06
15444;BME280;7822;48.146;11.576;2022-09-02T05:02:22;95444.06;;;15.47;67.23
15444;BME280;7822;48.146;11.576;2022-09-02T05:04:50;95453.25;;;15.51;66.60
15444;BME280;7822;48.146;11.576;2022-09-02T05:07:20;95452.91;;;15.46;66.96
15444;BME280;7822;48.146;11.576;2022-09-02T05:09:48;95451.63;;;15.50;67.34
15444;BME280;7822;48.146;11.576;2022-09-02T05:12:16;95449.47;;;15.45;67.43
15444;BME280;7822;48.146;11.576;2022-09-02T05:14:43;95452.47;;;15.50;66.99
15444;BME280;7822;48.146;11.576;2022-09-02T05:17:14;95449.53;;;15.53;67.13
15444;BME280;7822;48.146;11.576;2022-09-02T05:19:42;95451.78;;;15.48;67.17
15444;BME280;7822;48.146;11.576;2022-09-02T05:22:09;95457.56;;;15.42;67.54
15444;BME280;7822;48.146;11.576;2022-09-02T05:24:38;95456.88;;;15.40;67.25
15444;BME280;7822;48.146;11.576;2022-09-02T05:27:08;95454.25;;;15.40;67.94
15444;BME280;7822;48.146;11.576;2022-09-02T05:29:36;95446.16;;;15.43;67.92
15444;BME280;7822;48.146;11.576;2022-09-02T05:32:04;95452.47;;;15.50;67.46
15444;BME280;7822;48.146;11.576;2022-09-02T05:34:33;95458.66;;;15.49;67.38
15444;BME280;7822;48.146;11.576;2022-09-02T05:37:01;95449.41;;;15.55;67.33
15444;BME280;7822;48.146;11.576;2022-09-02T05:39:29;95455.44;;;15.55;67.43
15444;BME280;7822;48.146;11.576;2022-09-02T05:41:59;95452.63;;;15.84;66.40
15444;BME280;7822;48.146;11.576;2022-09-02T05:44:26;95449.78;;;15.95;66.14
15444;BME280;7822;48.146;11.576;2022-09-02T05:46:56;95445.44;;;16.04;65.61
15444;BME280;7822;48.146;11.576;2022-09-02T05:49:24;95451.88;;;16.09;65.30
15444;BME280;7822;48.146;11.576;2022-09-02T05:51:53;95453.22;;;16.13;65.32
15444;BME280;7822;48.146;11.576;2022-09-02T05:54:24;95451.81;;;16.01;66.19
15444;BME280;7822;48.146;11.576;2022-09-02T05:56:55;95446.78;;;16.25;64.90
15444;BME280;7822;48.146;11.576;2022-09-02T05:59:26;95454.88;;;16.14;65.67
15444;BME280;7822;48.146;11.576;2022-09-02T06:01:56;95448.44;;;16.09;65.77
15444;BME280;7822;48.146;11.576;2022-09-02T06:04:24;95449.78;;;16.13;65.41
15444;BME280;7822;48.146;11.576;2022-09-02T06:06:52;95447.03;;;16.14;65.65
15444;BME280;7822;48.146;11.576;2022-09-02T06:09:21;95443.88;;;16.11;65.97
15444;BME280;7822;48.146;11.576;2022-09-02T06:11:50;95445.81;;;16.09;66.37
15444;BME280;7822;48.146;11.576;2022-09-02T06:14:20;95447.78;;;16.07;66.46
15444;BME280;7822;48.146;11.576;2022-09-02T06:16:52;95443.03;;;16.28;65.83
15444;BME280;7822;48.146;11.576;2022-09-02T06:19:21;95445.78;;;16.44;65.17
15444;BME280;7822;48.146;11.576;2022-09-02T06:21:51;95438.09;;;16.43;65.67
15444;BME280;7822;48.146;11.576;2022-09-02T06:24:19;95440.31;;;16.38;65.53
15444;BME280;7822;48.146;11.576;2022-09-02T06:26:47;95438.38;;;16.57;64.64
15444;BME280;7822;48.146;11.576;2022-09-02T06:29:22;95439.41;;;16.47;65.55
15444;BME280;7822;48.146;11.576;2022-09-02T06:31:52;95442.78;;;16.57;65.02
15444;BME280;7822;48.146;11.576;2022-09-02T06:34:23;95441.97;;;16.82;64.22
15444;BME280;7822;48.146;11.576;2022-09-02T06:36:53;95444.81;;;16.96;63.61
15444;BME280;7822;48.146;11.576;2022-09-02T06:39:22;95444.41;;;16.83;63.95
15444;BME280;7822;48.146;11.576;2022-09-02T06:42:07;95435.97;;;16.97;63.73
15444;BME280;7822;48.146;11.576;2022-09-02T06:44:38;95439.47;;;17.06;63.67
15444;BME280;7822;48.146;11.576;2022-09-02T06:47:08;95432.91;;;17.10;63.85
15444;BME280;7822;48.146;11.576;2022-09-02T06:49:35;95433.84;;;16.93;63.93
15444;BME280;7822;48.146;11.576;2022-09-02T06:52:03;95440.16;;;16.82;64.63
15444;BME280;7822;48.146;11.576;2022-09-02T06:54:31;95438.00;;;16.78;64.83
15444;BME280;7822;48.146;11.576;2022-09-02T06:56:59;95431.56;;;16.72;65.20
15444;BME280;7822;48.146;11.576;2022-09-02T06:59:27;95441.97;;;16.82;64.36
15444;BME280;7822;48.146;11.576;2022-09-02T07:01:54;95440.03;;;16.92;64.59
15444;BME280;7822;48.146;11.576;2022-09-02T07:04:24;95431.97;;;16.85;64.63
15444;BME280;7822;48.146;11.576;2022-09-02T07:07:09;95430.72;;;16.89;64.48
15444;BME280;7822;48.146;11.576;2022-09-02T07:09:38;95435.25;;;17.21;63.21
15444;BME280;7822;48.146;11.576;2022-09-02T07:12:05;95447.25;;;17.24;63.12
15444;BME280;7822;48.146;11.576;2022-09-02T07:14:35;95436.06;;;17.14;63.57
15444;BME280;7822;48.146;11.576;2022-09-02T07:17:04;95446.84;;;17.11;63.79
15444;BME280;7822;48.146;11.576;2022-09-02T07:19:34;95442.50;;;17.69;62.26
15444;BME280;7822;48.146;11.576;2022-09-02T07:22:02;95441.34;;;17.71;61.93
15444;BME280;7822;48.146;11.576;2022-09-02T07:24:30;95440.06;;;17.84;61.58
15444;BME280;7822;48.146;11.576;2022-09-02T07:26:57;95445.16;;;17.77;61.56
15444;BME280;7822;48.146;11.576;2022-09-02T07:29:25;95451.88;;;17.80;61.20
15444;BME280;7822;48.146;11.576;2022-09-02T07:31:53;95447.78;;;17.77;60.91
15444;BME280;7822;48.146;11.576;2022-09-02T07:34:21;95441.03;;;17.66;61.69
15444;BME280;7822;48.146;11.576;2022-09-02T07:36:50;95437.63;;;17.90;60.98
15444;BME280;7822;48.146;11.576;2022-09-02T07:39:18;95435.66;;;18.00;60.79
15444;BME280;7822;48.146;11.576;2022-09-02T07:41:49;95438.28;;;17.92;60.78
15444;BME280;7822;48.146;11.576;2022-09-02T07:44:18;95441.56;;;17.86;60.72
15444;BME280;7822;48.146;11.576;2022-09-02T07:46:46;95438.75;;;17.80;60.96
15444;BME280;7822;48.146;11.576;2022-09-02T07:49:14;95444.31;;;17.85;61.00
15444;BME280;7822;48.146;11.576;2022-09-02T07:51:51;95435.50;;;18.10;60.11
15444;BME280;7822;48.146;11.576;2022-09-02T07:54:20;95435.66;;;18.00;60.37
15444;BME280;7822;48.146;11.576;2022-09-02T07:56:50;95431.06;;;17.94;60.37
15444;BME280;7822;48.146;11.576;2022-09-02T07:59:18;95434.03;;;18.07;59.52
15444;BME280;7822;48.146;11.576;2022-09-02T08:01:47;95430.56;;;18.31;58.19
15444;BME280;7822;48.146;11.576;2022-09-02T08:04:17;95430.56;;;18.31;58.33
15444;BME280;7822;48.146;11.576;2022-09-02T08:06:46;95434.53;;;18.11;59.25
15444;BME280;7822;48.146;11.576;2022-09-02T08:09:15;95426.81;;;18.01;59.54
15444;BME280;7822;48.146;11.576;2022-09-02T08:11:45;95435.00;;;17.98;59.65
15444;BME280;7822;48.146;11.576;2022-09-02T08:14:16;95428.78;;;18.31;58.16
15444;BME280;7822;48.146;11.576;2022-09-02T08:16:45;95432.53;;;18.29;58.51
15444;BME280;7822;48.146;11.576;2022-09-02T08:19:14;95430.41;;;18.24;58.90
15444;BME280;7822;48.146;11.576;2022-09-02T08:21:41;95437.97;;;18.19;58.94
15444;BME280;7822;48.146;11.576;2022-09-02T08:24:09;95429.13;;;18.53;57.75
15444;BME280;7822;48.146;11.576;2022-09-02T08:26:38;95426.63;;;18.67;56.37
15444;BME280;7822;48.146;11.576;2022-09-02T08:29:07;95430.75;;;18.70;55.67
15444;BME280;7822;48.146;11.576;2022-09-02T08:31:35;95424.84;;;18.68;54.96
15444;BME280;7822;48.146;11.576;2022-09-02T08:34:04;95411.69;;;18.60;55.70
15444;BME280;7822;48.146;11.576;2022-09-02T08:36:32;95417.75;;;18.68;54.23
15444;BME280;7822;48.146;11.576;2022-09-02T08:39:01;95414.63;;;18.81;51.63
15444;BME280;7822;48.146;11.576;2022-09-02T08:41:33;95415.41;;;18.89;51.41
15444;BME280;7822;48.146;11.576;2022-09-02T08:44:05;95416.09;;;18.83;53.32
15444;BME280;7822;48.146;11.576;2022-09-02T08:46:34;95415.75;;;18.94;50.83
15444;BME280;7822;48.146;11.576;2022-09-02T08:49:05;95408.47;;;19.04;50.29
15444;BME280;7822;48.146;11.576;2022-09-02T08:51:37;95411.88;;;19.13;49.82
15444;BME280;7822;48.146;11.576;2022-09-02T08:54:12;95410.41;;;19.18;49.86
15444;BME280;7822;48.146;11.576;2022-09-02T08:56:44;95415.25;;;18.99;50.35
15444;BME280;7822;48.146;11.576;2022-09-02T08:59:15;95414.44;;;18.82;51.38
15444;BME280;7822;48.146;11.576;2022-09-02T09:01:49;95414.28;;;18.84;51.89
15444;BME280;7822;48.146;11.576;2022-09-02T09:04:23;95410.69;;;18.77;52.35
15444;BME280;7822;48.146;11.576;2022-09-02T09:07:26;95416.75;;;18.77;52.32
15444;BME280;7822;48.146;11.576;2022-09-02T09:10:10;95420.50;;;18.91;51.33
15444;BME280;7822;48.146;11.576;2022-09-02T09:12:56;95413.25;;;18.93;52.27
15444;BME280;7822;48.146;11.576;2022-09-02T09:15:36;95414.66;;;19.19;48.54
15444;BME280;7822;48.146;11.576;2022-09-02T09:18:08;95412.63;;;19.38;47.40
15444;BME280;7822;48.146;11.576;2022-09-02T09:20:41;95409.81;;;19.47;48.11
15444;BME280;7822;48.146;11.576;2022-09-02T09:23:19;95411.63;;;19.39;48.79
15444;BME280;7822;48.146;11.576;2022-09-02T09:25:51;95410.44;;;19.49;47.81
15444;BME280;7822;48.146;11.576;2022-09-02T09:28:20;95403.84;;;19.53;47.77
15444;BME280;7822;48.146;11.576;2022-09-02T09:30:49;95399.78;;;19.73;49.32
15444;BME280;7822;48.146;11.576;2022-09-02T09:33:20;95399.06;;;19.79;49.35
15444;BME280;7822;48.146;11.576;2022-09-02T09:35:50;95396.00;;;19.68;50.52
15444;BME280;7822;48.146;11.576;2022-09-02T09:38:28;95394.59;;;19.57;50.46
15444;BME280;7822;48.146;11.576;2022-09-02T09:41:10;95391.97;;;19.57;51.22
15444;BME280;7822;48.146;11.576;2022-09-02T09:43:39;95383.81;;;19.75;49.77
15444;BME280;7822;48.146;11.576;2022-09-02T09:46:26;95389.53;;;20.01;48.41
15444;BME280;7822;48.146;11.576;2022-09-02T09:49:02;95390.78;;;19.90;48.78
15444;BME280;7822;48.146;11.576;2022-09-02T09:52:05;95378.38;;;20.22;47.44
15444;BME280;7822;48.146;11.576;2022-09-02T09:55:14;95373.50;;;20.11;48.20
15444;BME280;7822;48.146;11.576;2022-09-02T09:58:40;95381.34;;;19.96;49.55
15444;BME280;7822;48.146;11.576;2022-09-02T10:01:27;95390.66;;;19.84;50.31
15444;BME280;7822;48.146;11.576;2022-09-02T10:03:58;95380.50;;;20.18;47.68
15444;BME280;7822;48.146;11.576;2022-09-02T10:06:37;95390.31;;;20.47;45.85
15444;BME280;7822;48.146;11.576;2022-09-02T10:09:23;95385.44;;;20.44;45.92
15444;BME280;7822;48.146;11.576;2022-09-02T10:11:54;95385.53;;;20.50;45.59
15444;BME280;7822;48.146;11.576;2022-09-02T10:14:26;95374.16;;;20.35;46.19
15444;BME280;7822;48.146;11.576;2022-09-02T10:17:21;95373.03;;;20.30;47.18
15444;BME280;7822;48.146;11.576;2022-09-02T10:19:54;95383.00;;;20.57;45.53
15444;BME280;7822;48.146;11.576;2022-09-02T10:23:04;95376.56;;;20.59;44.75
15444;BME280;7822;48.146;11.576;2022-09-02T10:25:49;95371.00;;;20.54;44.79
15444;BME280;7822;48.146;11.576;2022-09-02T10:28:28;95375.91;;;20.57;45.18
15444;BME280;7822;48.146;11.576;2022-09-02T10:31:07;95368.53;;;20.67;45.27
15444;BME280;7822;48.146;11.576;2022-09-02T10:33:45;95377.09;;;20.55;45.78
15444;BME280;7822;48.146;11.576;2022-09-02T10:36:23;95376.31;;;20.32;47.21
15444;BME280;7822;48.146;11.576;2022-09-02T10:38:59;95378.69;;;20.41;46.63
15444;BME280;7822;48.146;11.576;2022-09-02T10:41:39;95375.03;;;20.28;48.19
15444;BME280;7822;48.146;11.576;2022-09-02T10:44:31;95368.78;;;20.29;47.11
15444;BME280;7822;48.146;11.576;2022-09-02T10:47:03;95379.00;;;20.24;47.95
15444;BME280;7822;48.146;11.576;2022-09-02T10:49:58;95362.78;;;20.49;46.08
15444;BME280;7822;48.146;11.576;2022-09-02T10:52:46;95360.34;;;20.33;47.79
15444;BME280;7822;48.146;11.576;2022-09-02T10:55:24;95361.03;;;20.27;48.10
15444;BME280;7822;48.146;11.576;2022-09-02T10:58:02;95355.66;;;20.21;48.74
15444;BME280;7822;48.146;11.576;2022-09-02T11:00:32;95350.09;;;20.16;48.90
15444;BME280;7822;48.146;11.576;2022-09-02T11:03:09;95355.50;;;20.37;46.64
15444;BME280;7822;48.146;11.576;2022-09-02T11:05:45;95352.34;;;20.41;46.73
15444;BME280;7822;48.146;11.576;2022-09-02T11:08:18;95347.50;;;20.30;47.47
15444;BME280;7822;48.146;11.576;2022-09-02T11:15:22;95337.00;;;20.59;45.17
15444;BME280;7822;48.146;11.576;2022-09-02T11:18:20;95341.72;;;20.49;46.67
15444;BME280;7822;48.146;11.576;2022-09-02T11:28:55;95340.19;;;20.55;45.85
15444;BME280;7822;48.146;11.576;2022-09-02T11:31:31;95326.06;;;20.62;45.25
15444;BME280;7822;48.146;11.576;2022-09-02T11:34:11;95335.69;;;20.55;45.72
15444;BME280;7822;48.146;11.576;2022-09-02T11:36:43;95334.00;;;20.48;46.64
15444;BME280;7822;48.146;11.576;2022-09-02T11:39:14;95338.28;;;20.63;44.18
15444;BME280;7822;48.146;11.576;2022-09-02T11:42:14;95340.44;;;20.45;46.03
15444;BME280;7822;48.146;11.576;2022-09-02T12:00:25;95319.63;;;20.65;44.83
15444;BME280;7822;48.146;11.576;2022-09-02T12:02:59;95325.63;;;20.59;45.18
15444;BME280;7822;48.146;11.576;2022-09-02T12:06:06;95331.63;;;20.67;44.30
15444;BME280;7822;48.146;11.576;2022-09-02T12:09:08;95326.91;;;20.92;43.67
15444;BME280;7822;48.146;11.576;2022-09-02T12:11:49;95322.34;;;20.72;45.90
15444;BME280;7822;48.146;11.576;2022-09-02T12:21:21;95325.63;;;20.74;45.59
15444;BME280;7822;48.146;11.576;2022-09-02T12:24:25;95322.97;;;21.17;42.30
15444;BME280;7822;48.146;11.576;2022-09-02T12:27:24;95318.88;;;21.00;43.72
15444;BME280;7822;48.146;11.576;2022-09-02T12:29:53;95323.16;;;21.01;43.30
15444;BME280;7822;48.146;11.576;2022-09-02T12:35:52;95323.09;;;20.95;42.92
15444;BME280;7822;48.146;11.576;2022-09-02T12:38:23;95312.75;;;21.29;42.30
15444;BME280;7822;48.146;11.576;2022-09-02T12:40:57;95314.81;;;21.12;42.92
15444;BME280;7822;48.146;11.576;2022-09-02T12:43:32;95309.47;;;21.06;43.27
15444;BME280;7822;48.146;11.576;2022-09-02T12:46:13;95301.28;;;20.86;44.93
15444;BME280;7822;48.146;11.576;2022-09-02T12:48:53;95302.53;;;20.76;45.40
15444;BME280;7822;48.146;11.576;2022-09-02T12:51:50;95307.16;;;20.74;45.58
15444;BME280;7822;48.146;11.576;2022-09-02T12:54:23;95294.63;;;20.76;45.11
15444;BME280;7822;48.146;11.576;2022-09-02T12:56:55;95298.78;;;20.85;43.80
15444;BME280;7822;48.146;11.576;2022-09-02T12:59:46;95308.44;;;20.78;45.59
15444;BME280;7822;48.146;11.576;2022-09-02T13:02:30;95311.97;;;20.99;44.25
15444;BME280;7822;48.146;11.576;2022-09-02T13:05:13;95305.25;;;21.11;43.67
15444;BME280;7822;48.146;11.576;2022-09-02T13:11:06;95296.06;;;21.07;43.52
15444;BME280;7822;48.146;11.576;2022-09-02T13:14:39;95295.06;;;20.94;44.43
15444;BME280;7822;48.146;11.576;2022-09-02T13:17:21;95290.81;;;20.93;44.76
15444;BME280;7822;48.146;11.576;2022-09-02T13:26:29;95293.25;;;21.09;44.26
15444;BME280;7822;48.146;11.576;2022-09-02T13:29:41;95284.41;;;21.02;44.32
15444;BME280;7822;48.146;11.576;2022-09-02T13:32:24;95280.88;;;21.09;44.28
15444;BME280;7822;48.146;11.576;2022-09-02T13:34:55;95273.94;;;21.44;42.88
15444;BME280;7822;48.146;11.576;2022-09-02T13:37:29;95280.31;;;21.50;42.94
15444;BME280;7822;48.146;11.576;2022-09-02T13:39:58;95278.91;;;21.54;42.67
15444;BME280;7822;48.146;11.576;2022-09-02T13:42:28;95271.75;;;21.69;43.31
15444;BME280;7822;48.146;11.576;2022-09-02T13:45:12;95283.81;;;21.78;45.49
15444;BME280;7822;48.146;11.576;2022-09-02T13:47:46;95270.50;;;21.65;45.24
15444;BME280;7822;48.146;11.576;2022-09-02T13:50:17;95278.34;;;21.58;44.67
15444;BME280;7822;48.146;11.576;2022-09-02T13:52:49;95270.03;;;21.61;43.31
15444;BME280;7822;48.146;11.576;2022-09-02T13:55:39;95275.72;;;21.58;44.26
15444;BME280;7822;48.146;11.576;2022-09-02T13:58:30;95268.88;;;21.85;42.47
15444;BME280;7822;48.146;11.576;2022-09-02T14:01:21;95268.09;;;21.91;42.58
15444;BME280;7822;48.146;11.576;2022-09-02T14:03:52;95273.34;;;21.84;42.74
15444;BME280;7822;48.146;11.576;2022-09-02T14:06:23;95273.25;;;21.99;42.23
15444;BME280;7822;48.146;11.576;2022-09-02T14:08:54;95258.19;;;22.21;42.13
15444;BME280;7822;48.146;11.576;2022-09-02T14:11:24;95263.09;;;22.58;41.29
15444;BME280;7822;48.146;11.576;2022-09-02T14:13:52;95254.56;;;23.03;40.77
15444;BME280;7822;48.146;11.576;2022-09-02T14:16:32;95253.09;;;23.41;40.80
15444;BME280;7822;48.146;11.576;2022-09-02T14:19:09;95243.97;;;23.90;38.52